Time;durP1;ratioP1;P1;durP2;ratioP2;P2;SDS_P1;SDS_P2;PMS_P1;PMS_P2;Temp;Humidity;BMP_temperature;BMP_pressure;BME280_temperature;BME280_humidity;BME280_pressure;Samples;Min_cycle;Max_cycle;Signal;HPM_P1;HPM_P2
2024/01/30 00:01:23;;;;;;;11.38;4.07;;;;;;;;;;4751516;30;20062;-80
2024/01/30 00:03:50;;;;;;;10.68;4.72;;;;;;;;;;4754587;30;20489;-80
2024/01/30 00:06:20;;;;;;;8.60;3.28;;;;;;;;;;4758217;30;20031;-81
2024/01/30 00:08:48;;;;;;;27.38;4.70;;;;;;;;;;4768275;30;20075;-81
2024/01/30 00:11:14;;;;;;;7.50;3.60;;;;;;;;;;4758955;30;20040;-80
2024/01/30 00:13:40;;;;;;;7.35;3.95;;;;;;;;;;4762948;30;20051;-80
2024/01/30 00:16:07;;;;;;;2.95;1.95;;;;;;;;;;4752871;30;20032;-80
2024/01/30 00:18:33;;;;;;;4.35;2.55;;;;;;;;;;4762143;30;20483;-80
2024/01/30 00:20:58;;;;;;;14.38;3.38;;;;;;;;;;4754090;30;20040;-80
2024/01/30 00:23:25;;;;;;;7.20;3.20;;;;;;;;;;4758545;30;20116;-80
2024/01/30 00:25:51;;;;;;;5.10;2.50;;;;;;;;;;4759634;30;20040;-80
2024/01/30 00:28:17;;;;;;;4.22;2.78;;;;;;;;;;4753524;30;20074;-80
2024/01/30 00:30:43;;;;;;;5.97;3.42;;;;;;;;;;4753228;30;20411;-79
2024/01/30 00:33:09;;;;;;;6.10;3.55;;;;;;;;;;4764993;30;20032;-80
2024/01/30 00:35:35;;;;;;;5.00;2.97;;;;;;;;;;4765532;30;20067;-80
2024/01/30 00:38:01;;;;;;;9.63;2.97;;;;;;;;;;4763085;30;20043;-80
2024/01/30 00:40:27;;;;;;;10.02;4.13;;;;;;;;;;4768123;30;20052;-80
2024/01/30 00:42:53;;;;;;;7.15;3.47;;;;;;;;;;4763423;30;20036;-80
2024/01/30 00:45:20;;;;;;;5.50;2.35;;;;;;;;;;4752069;30;20574;-80
2024/01/30 00:47:46;;;;;;;5.40;3.13;;;;;;;;;;4760695;30;20043;-80
2024/01/30 00:50:12;;;;;;;9.05;1.85;;;;;;;;;;4754920;30;20372;-80
2024/01/30 00:52:39;;;;;;;6.15;2.67;;;;;;;;;;4757684;30;20036;-80
2024/01/30 00:55:05;;;;;;;2.45;1.25;;;;;;;;;;4750853;30;20808;-80
2024/01/30 00:57:31;;;;;;;5.38;2.95;;;;;;;;;;4753867;30;20032;-80
2024/01/30 00:59:57;;;;;;;2.00;1.65;;;;;;;;;;4759046;30;20054;-80
2024/01/30 01:02:23;;;;;;;13.10;3.53;;;;;;;;;;4765667;30;20491;-80
2024/01/30 01:04:49;;;;;;;4.10;2.22;;;;;;;;;;4765498;30;20048;-79
2024/01/30 01:07:16;;;;;;;8.13;2.97;;;;;;;;;;4741205;30;20043;-80
2024/01/30 01:09:42;;;;;;;6.45;3.13;;;;;;;;;;4768212;30;20043;-80
2024/01/30 01:12:08;;;;;;;4.68;2.75;;;;;;;;;;4761750;30;20036;-80
2024/01/30 01:14:34;;;;;;;8.65;2.42;;;;;;;;;;4758542;30;20133;-80
2024/01/30 01:17:00;;;;;;;5.55;3.15;;;;;;;;;;4763060;30;20028;-80
2024/01/30 01:19:26;;;;;;;6.00;3.38;;;;;;;;;;4758751;30;20044;-80
2024/01/30 01:21:52;;;;;;;6.88;2.85;;;;;;;;;;4764470;30;20383;-80
2024/01/30 01:24:19;;;;;;;9.82;5.38;;;;;;;;;;4762572;30;20075;-80
2024/01/30 01:26:45;;;;;;;11.18;5.40;;;;;;;;;;4767797;30;20046;-80
2024/01/30 01:29:11;;;;;;;13.63;4.75;;;;;;;;;;4765148;30;20051;-80
2024/01/30 01:31:44;;;;;;;7.07;1.77;;;;;;;;;;4750160;30;20032;-80
2024/01/30 01:34:13;;;;;;;2.30;1.30;;;;;;;;;;4766213;30;20059;-80
2024/01/30 01:36:39;;;;;;;8.50;3.65;;;;;;;;;;4749517;30;20033;-80
2024/01/30 01:39:05;;;;;;;4.22;2.53;;;;;;;;;;4757615;30;20033;-80
2024/01/30 01:41:34;;;;;;;4.22;2.38;;;;;;;;;;4771175;30;20032;-80
2024/01/30 01:44:00;;;;;;;3.92;2.30;;;;;;;;;;4763686;30;20043;-80
2024/01/30 01:46:27;;;;;;;4.55;1.73;;;;;;;;;;4763330;30;20128;-80
2024/01/30 01:48:54;;;;;;;7.32;2.30;;;;;;;;;;4738292;30;20044;-80
2024/01/30 01:51:20;;;;;;;8.82;3.47;;;;;;;;;;4754288;30;20032;-80
2024/01/30 01:53:46;;;;;;;9.13;2.67;;;;;;;;;;4768869;30;20043;-80
2024/01/30 01:56:12;;;;;;;6.63;3.20;;;;;;;;;;4756706;30;20040;-80
2024/01/30 01:58:38;;;;;;;10.60;5.75;;;;;;;;;;4757462;30;20045;-80
2024/01/30 02:01:05;;;;;;;11.65;3.85;;;;;;;;;;4758982;30;20483;-80
2024/01/30 02:03:31;;;;;;;8.48;2.80;;;;;;;;;;4768158;30;20089;-79
2024/01/30 02:05:57;;;;;;;9.45;2.80;;;;;;;;;;4769933;30;20032;-79
2024/01/30 02:08:24;;;;;;;9.05;3.17;;;;;;;;;;4769578;30;20530;-80
2024/01/30 02:10:50;;;;;;;12.18;4.72;;;;;;;;;;4760843;30;20043;-80
2024/01/30 02:13:16;;;;;;;4.93;2.05;;;;;;;;;;4762170;30;20090;-80
2024/01/30 02:15:42;;;;;;;9.07;2.28;;;;;;;;;;4762522;30;20040;-79
2024/01/30 02:18:08;;;;;;;3.00;1.85;;;;;;;;;;4762677;30;20804;-79
2024/01/30 02:20:35;;;;;;;3.75;2.88;;;;;;;;;;4771400;30;20087;-80
2024/01/30 02:23:02;;;;;;;9.82;2.40;;;;;;;;;;4770572;30;20028;-80
2024/01/30 02:25:32;;;;;;;8.85;3.22;;;;;;;;;;4754803;30;20484;-80
2024/01/30 02:27:58;;;;;;;4.95;2.95;;;;;;;;;;4760848;30;20040;-80
2024/01/30 02:30:24;;;;;;;7.15;4.15;;;;;;;;;;4766943;30;20103;-79
2024/01/30 02:32:50;;;;;;;13.10;5.18;;;;;;;;;;4759753;30;20061;-80
2024/01/30 02:35:16;;;;;;;10.93;5.25;;;;;;;;;;4753452;30;20362;-79
2024/01/30 02:37:42;;;;;;;8.23;3.53;;;;;;;;;;4751408;30;20024;-80
2024/01/30 02:40:08;;;;;;;5.10;2.00;;;;;;;;;;4770335;30;20126;-79
2024/01/30 02:42:34;;;;;;;4.40;1.83;;;;;;;;;;4764089;30;20069;-80
2024/01/30 02:45:00;;;;;;;8.02;3.17;;;;;;;;;;4758633;30;20048;-80
2024/01/30 02:47:26;;;;;;;8.32;2.40;;;;;;;;;;4769819;30;20110;-79
2024/01/30 02:49:52;;;;;;;6.32;3.28;;;;;;;;;;4754229;30;20071;-79
2024/01/30 02:52:19;;;;;;;9.20;2.70;;;;;;;;;;4762289;30;20082;-80
2024/01/30 02:54:45;;;;;;;5.75;3.33;;;;;;;;;;4765536;30;20122;-79
2024/01/30 02:57:11;;;;;;;4.57;2.38;;;;;;;;;;4767398;30;20111;-80
2024/01/30 02:59:37;;;;;;;10.32;2.90;;;;;;;;;;4753953;30;20116;-79
2024/01/30 03:02:03;;;;;;;9.40;3.75;;;;;;;;;;4760044;30;20035;-80
2024/01/30 03:04:30;;;;;;;8.18;2.95;;;;;;;;;;4768753;30;20051;-80
2024/01/30 03:06:56;;;;;;;11.10;3.42;;;;;;;;;;4768331;30;20039;-80
2024/01/30 03:09:22;;;;;;;9.38;3.13;;;;;;;;;;4758998;30;20449;-80
2024/01/30 03:11:48;;;;;;;6.57;2.08;;;;;;;;;;4765120;30;20027;-79
2024/01/30 03:14:14;;;;;;;17.20;3.35;;;;;;;;;;4764839;30;20463;-79
2024/01/30 03:16:40;;;;;;;12.25;3.65;;;;;;;;;;4769267;30;20063;-80
2024/01/30 03:19:10;;;;;;;7.20;2.90;;;;;;;;;;4767385;30;20588;-79
2024/01/30 03:21:36;;;;;;;3.40;2.88;;;;;;;;;;4752250;30;20066;-80
2024/01/30 03:24:02;;;;;;;6.95;2.95;;;;;;;;;;4763559;30;20475;-80
2024/01/30 03:26:28;;;;;;;6.55;3.55;;;;;;;;;;4770248;30;20035;-80
2024/01/30 03:28:54;;;;;;;7.68;4.55;;;;;;;;;;4760440;30;20075;-81
2024/01/30 03:31:20;;;;;;;5.70;3.47;;;;;;;;;;4758792;30;20158;-80
2024/01/30 03:33:46;;;;;;;7.60;2.70;;;;;;;;;;4754712;30;20051;-79
2024/01/30 03:36:12;;;;;;;13.90;4.25;;;;;;;;;;4769378;30;20042;-80
2024/01/30 03:38:38;;;;;;;12.40;3.72;;;;;;;;;;4768103;30;20079;-79
2024/01/30 03:41:04;;;;;;;6.35;2.33;;;;;;;;;;4756285;30;20036;-80
2024/01/30 03:43:30;;;;;;;5.75;2.88;;;;;;;;;;4767818;30;20059;-80
2024/01/30 03:45:56;;;;;;;10.82;3.53;;;;;;;;;;4755047;30;20043;-80
2024/01/30 03:48:22;;;;;;;10.23;2.67;;;;;;;;;;4764287;30;20032;-80
2024/01/30 03:50:48;;;;;;;5.68;2.67;;;;;;;;;;4755521;30;20039;-80
2024/01/30 03:53:14;;;;;;;9.32;3.10;;;;;;;;;;4751686;30;20480;-80
2024/01/30 03:55:40;;;;;;;8.68;4.47;;;;;;;;;;4753521;30;20068;-80
2024/01/30 03:58:06;;;;;;;11.25;2.72;;;;;;;;;;4766869;30;20539;-80
2024/01/30 04:00:32;;;;;;;11.68;3.53;;;;;;;;;;4758511;30;20111;-80
2024/01/30 04:02:58;;;;;;;11.10;3.42;;;;;;;;;;4769669;30;20036;-80
2024/01/30 04:05:23;;;;;;;6.32;3.35;;;;;;;;;;4760046;30;20048;-80
2024/01/30 04:07:49;;;;;;;5.18;2.40;;;;;;;;;;4769019;30;20043;-80
2024/01/30 04:10:15;;;;;;;3.65;2.10;;;;;;;;;;4764657;30;20436;-80
2024/01/30 04:12:42;;;;;;;6.28;1.42;;;;;;;;;;4761624;30;20028;-80
2024/01/30 04:15:08;;;;;;;12.48;4.72;;;;;;;;;;4751432;30;20109;-80
2024/01/30 04:17:34;;;;;;;5.35;3.03;;;;;;;;;;4753378;30;20044;-80
2024/01/30 04:20:00;;;;;;;7.40;2.83;;;;;;;;;;4761373;30;20113;-80
2024/01/30 04:22:26;;;;;;;4.40;2.28;;;;;;;;;;4765454;30;20119;-80
2024/01/30 04:24:52;;;;;;;8.98;2.83;;;;;;;;;;4768874;30;20119;-79
2024/01/30 04:27:18;;;;;;;4.50;2.42;;;;;;;;;;4760092;30;20116;-80
2024/01/30 04:29:44;;;;;;;4.25;1.55;;;;;;;;;;4751397;30;20806;-81
2024/01/30 04:32:10;;;;;;;5.75;2.78;;;;;;;;;;4761055;30;20118;-80
2024/01/30 04:34:39;;;;;;;3.83;2.15;;;;;;;;;;4770593;30;20066;-80
2024/01/30 04:37:05;;;;;;;6.68;2.28;;;;;;;;;;4741661;30;20039;-80
2024/01/30 04:39:33;;;;;;;3.17;1.38;;;;;;;;;;4751749;30;20048;-80
2024/01/30 04:41:59;;;;;;;10.35;1.98;;;;;;;;;;4761263;30;20123;-80
2024/01/30 04:44:25;;;;;;;4.22;2.40;;;;;;;;;;4768495;30;20043;-80
2024/01/30 04:46:51;;;;;;;3.63;1.60;;;;;;;;;;4763804;30;20123;-80
2024/01/30 04:49:17;;;;;;;6.50;3.33;;;;;;;;;;4759723;30;20534;-80
2024/01/30 04:51:43;;;;;;;7.72;2.85;;;;;;;;;;4751651;30;20043;-80
2024/01/30 04:54:09;;;;;;;9.88;2.47;;;;;;;;;;4754301;30;20073;-80
2024/01/30 04:56:35;;;;;;;8.52;4.72;;;;;;;;;;4752763;30;20061;-80
2024/01/30 04:59:02;;;;;;;3.95;1.73;;;;;;;;;;4764815;30;20048;-80
2024/01/30 05:01:28;;;;;;;3.90;2.00;;;;;;;;;;4758043;30;20071;-80
2024/01/30 05:03:54;;;;;;;7.05;3.38;;;;;;;;;;4751819;30;20402;-80
2024/01/30 05:06:29;;;;;;;7.10;2.58;;;;;;;;;;4767963;30;20479;-80
2024/01/30 05:08:55;;;;;;;6.78;2.38;;;;;;;;;;4767229;30;20039;-80
2024/01/30 05:11:22;;;;;;;9.15;4.30;;;;;;;;;;4757134;30;20031;-80
2024/01/30 05:13:48;;;;;;;4.07;1.92;;;;;;;;;;4767112;30;20047;-80
2024/01/30 05:16:14;;;;;;;7.85;3.85;;;;;;;;;;4751259;30;20032;-80
2024/01/30 05:18:40;;;;;;;6.35;2.65;;;;;;;;;;4759721;30;20054;-80
2024/01/30 05:21:06;;;;;;;2.42;1.45;;;;;;;;;;4757681;30;20040;-80
2024/01/30 05:23:32;;;;;;;4.45;2.03;;;;;;;;;;4764583;30;20090;-80
2024/01/30 05:26:00;;;;;;;6.95;2.75;;;;;;;;;;4755040;30;20487;-80
2024/01/30 05:28:26;;;;;;;5.03;2.95;;;;;;;;;;4737952;30;20082;-80
2024/01/30 05:30:52;;;;;;;8.50;2.65;;;;;;;;;;4758975;30;20055;-80
2024/01/30 05:33:18;;;;;;;8.57;2.08;;;;;;;;;;4750481;30;20472;-80
2024/01/30 05:35:44;;;;;;;6.80;2.53;;;;;;;;;;4756254;30;20032;-80
2024/01/30 05:38:12;;;;;;;8.43;2.88;;;;;;;;;;4750773;30;20036;-80
2024/01/30 05:40:38;;;;;;;7.65;3.50;;;;;;;;;;4752443;30;20313;-80
2024/01/30 05:43:04;;;;;;;9.73;3.13;;;;;;;;;;4762677;30;20075;-81
2024/01/30 05:45:30;;;;;;;6.03;2.10;;;;;;;;;;4761577;30;20492;-80
2024/01/30 05:47:56;;;;;;;3.13;2.15;;;;;;;;;;4762378;30;20077;-80
2024/01/30 05:50:23;;;;;;;6.40;2.83;;;;;;;;;;4756112;30;20076;-80
2024/01/30 05:52:49;;;;;;;4.18;2.38;;;;;;;;;;4767600;30;20031;-79
2024/01/30 05:55:15;;;;;;;4.45;2.70;;;;;;;;;;4751568;30;20611;-80
2024/01/30 05:57:41;;;;;;;6.68;3.17;;;;;;;;;;4768077;30;20063;-80
2024/01/30 06:00:08;;;;;;;13.02;4.03;;;;;;;;;;4766137;30;20079;-80
2024/01/30 06:02:34;;;;;;;7.38;3.58;;;;;;;;;;4764623;30;20499;-80
2024/01/30 06:05:00;;;;;;;9.90;3.83;;;;;;;;;;4759527;30;20044;-80
2024/01/30 06:07:26;;;;;;;4.38;3.10;;;;;;;;;;4757297;30;20051;-81
2024/01/30 06:09:52;;;;;;;4.30;3.13;;;;;;;;;;4749830;30;20459;-82
2024/01/30 06:12:18;;;;;;;8.55;4.68;;;;;;;;;;4755108;30;20507;-80
2024/01/30 06:14:44;;;;;;;12.23;4.65;;;;;;;;;;4751643;30;20044;-80
2024/01/30 06:17:11;;;;;;;11.20;3.28;;;;;;;;;;4757653;30;20040;-80
2024/01/30 06:19:38;;;;;;;8.48;4.88;;;;;;;;;;4761401;30;20507;-80
2024/01/30 06:22:04;;;;;;;24.05;7.70;;;;;;;;;;4757773;30;20043;-80
2024/01/30 06:24:30;;;;;;;12.15;5.20;;;;;;;;;;4749397;30;20036;-80
2024/01/30 06:26:56;;;;;;;16.33;8.60;;;;;;;;;;4762016;30;20234;-79
2024/01/30 06:29:24;;;;;;;33.22;11.10;;;;;;;;;;4768454;30;20121;-81
2024/01/30 06:31:50;;;;;;;29.08;9.07;;;;;;;;;;4766062;30;20662;-82
2024/01/30 06:34:16;;;;;;;20.35;8.57;;;;;;;;;;4763563;30;20058;-80
2024/01/30 06:36:42;;;;;;;19.35;8.40;;;;;;;;;;4767365;30;20118;-79
2024/01/30 06:39:08;;;;;;;11.88;5.43;;;;;;;;;;4756104;30;20701;-81
2024/01/30 06:41:34;;;;;;;13.40;8.20;;;;;;;;;;4761123;30;20051;-80
2024/01/30 06:44:03;;;;;;;16.27;7.00;;;;;;;;;;4765687;30;20356;-80
2024/01/30 06:46:29;;;;;;;19.98;6.07;;;;;;;;;;4769346;30;20036;-80
2024/01/30 06:48:55;;;;;;;11.43;5.18;;;;;;;;;;4754456;30;20044;-80
2024/01/30 06:51:21;;;;;;;6.30;3.78;;;;;;;;;;4765114;30;20032;-80
2024/01/30 06:53:47;;;;;;;7.53;3.25;;;;;;;;;;4771979;30;20067;-80
2024/01/30 06:56:13;;;;;;;17.60;5.03;;;;;;;;;;4772038;30;20110;-80
2024/01/30 06:58:39;;;;;;;11.52;6.05;;;;;;;;;;4771981;30;20071;-80
2024/01/30 07:01:05;;;;;;;8.35;4.88;;;;;;;;;;4755486;30;20067;-80
2024/01/30 07:03:31;;;;;;;7.82;4.90;;;;;;;;;;4769394;30;20042;-80
2024/01/30 07:05:57;;;;;;;12.95;6.30;;;;;;;;;;4771875;30;20097;-80
2024/01/30 07:08:23;;;;;;;10.57;5.97;;;;;;;;;;4765594;30;20044;-80
2024/01/30 07:10:49;;;;;;;39.95;4.50;;;;;;;;;;4755079;30;20036;-80
2024/01/30 07:13:16;;;;;;;15.55;6.80;;;;;;;;;;4754494;30;20036;-80
2024/01/30 07:15:42;;;;;;;7.05;4.30;;;;;;;;;;4771601;30;20360;-80
2024/01/30 07:18:09;;;;;;;5.90;3.35;;;;;;;;;;4767194;30;20035;-80
2024/01/30 07:20:35;;;;;;;8.75;4.40;;;;;;;;;;4754137;30;20126;-80
2024/01/30 07:23:03;;;;;;;8.57;3.33;;;;;;;;;;4754011;30;20047;-80
2024/01/30 07:25:29;;;;;;;6.57;3.65;;;;;;;;;;4749483;30;20063;-79
2024/01/30 07:27:55;;;;;;;7.18;3.83;;;;;;;;;;4771800;30;20036;-80
2024/01/30 07:30:23;;;;;;;10.32;4.15;;;;;;;;;;4764362;30;20052;-80
2024/01/30 07:32:49;;;;;;;13.52;5.78;;;;;;;;;;4753834;30;20042;-80
2024/01/30 07:35:15;;;;;;;39.55;5.10;;;;;;;;;;4771106;30;20523;-79
2024/01/30 07:37:41;;;;;;;6.60;3.15;;;;;;;;;;4771443;30;20043;-80
2024/01/30 07:40:07;;;;;;;4.80;1.95;;;;;;;;;;4771957;30;20069;-80
2024/01/30 07:42:33;;;;;;;10.85;4.05;;;;;;;;;;4771561;30;20128;-80
2024/01/30 07:45:00;;;;;;;12.27;5.22;;;;;;;;;;4770395;30;20040;-79
2024/01/30 07:47:26;;;;;;;12.07;4.63;;;;;;;;;;4771339;30;20402;-79
2024/01/30 07:49:54;;;;;;;8.85;3.90;;;;;;;;;;4771784;30;20043;-80
2024/01/30 07:52:20;;;;;;;9.48;4.32;;;;;;;;;;4771210;30;20034;-80
2024/01/30 07:54:46;;;;;;;13.43;4.70;;;;;;;;;;4771685;30;20081;-79
2024/01/30 07:57:12;;;;;;;5.90;3.83;;;;;;;;;;4767410;30;20036;-80
2024/01/30 07:59:38;;;;;;;8.38;4.65;;;;;;;;;;4771503;30;20471;-79
2024/01/30 08:02:04;;;;;;;16.38;6.40;;;;;;;;;;4761687;30;20082;-80
2024/01/30 08:04:30;;;;;;;9.00;4.45;;;;;;;;;;4768784;30;20047;-80
2024/01/30 08:06:56;;;;;;;9.65;5.15;;;;;;;;;;4765522;30;20379;-80
2024/01/30 08:09:22;;;;;;;9.15;4.65;;;;;;;;;;4753224;30;20036;-80
2024/01/30 08:11:48;;;;;;;13.10;5.18;;;;;;;;;;4763789;30;20035;-80
2024/01/30 08:14:14;;;;;;;11.25;6.35;;;;;;;;;;4770733;30;20085;-80
2024/01/30 08:16:40;;;;;;;14.18;4.80;;;;;;;;;;4769148;30;20040;-80
2024/01/30 08:19:06;;;;;;;11.32;5.50;;;;;;;;;;4752736;30;20032;-80
2024/01/30 08:21:36;;;;;;;7.13;4.47;;;;;;;;;;4753832;30;20039;-80
2024/01/30 08:24:02;;;;;;;7.38;5.20;;;;;;;;;;4770152;30;20031;-80
2024/01/30 08:26:28;;;;;;;7.93;4.82;;;;;;;;;;4753524;30;20027;-80
2024/01/30 08:28:54;;;;;;;6.85;4.25;;;;;;;;;;4758818;30;20136;-80
2024/01/30 08:31:20;;;;;;;6.30;3.80;;;;;;;;;;4760958;30;20031;-79
2024/01/30 08:33:46;;;;;;;9.57;4.47;;;;;;;;;;4769716;30;20036;-80
2024/01/30 08:36:12;;;;;;;10.00;5.15;;;;;;;;;;4770255;30;20035;-80
2024/01/30 08:38:38;;;;;;;9.93;3.95;;;;;;;;;;4764248;30;20352;-80
2024/01/30 08:41:05;;;;;;;9.27;5.38;;;;;;;;;;4770036;30;20044;-80
2024/01/30 08:43:31;;;;;;;11.00;4.47;;;;;;;;;;4755861;30;20032;-80
2024/01/30 08:45:59;;;;;;;8.07;3.00;;;;;;;;;;4762948;30;20045;-80
2024/01/30 08:48:25;;;;;;;6.82;3.90;;;;;;;;;;4758752;30;20035;-80
2024/01/30 08:50:51;;;;;;;5.97;3.78;;;;;;;;;;4769704;30;20047;-80
2024/01/30 08:53:18;;;;;;;9.82;4.45;;;;;;;;;;4762658;30;20027;-80
2024/01/30 08:55:44;;;;;;;5.85;4.00;;;;;;;;;;4758780;30;20044;-80
2024/01/30 08:58:10;;;;;;;7.30;4.45;;;;;;;;;;4753863;30;20034;-81
2024/01/30 09:00:36;;;;;;;6.90;2.92;;;;;;;;;;4768017;30;20061;-81
2024/01/30 09:03:02;;;;;;;9.25;4.68;;;;;;;;;;4769982;30;20086;-80
2024/01/30 09:05:28;;;;;;;5.00;2.67;;;;;;;;;;4769229;30;20043;-80
2024/01/30 09:07:54;;;;;;;4.88;2.75;;;;;;;;;;4768759;30;20048;-81
2024/01/30 09:10:20;;;;;;;7.85;3.10;;;;;;;;;;4752548;30;20071;-80
2024/01/30 09:12:46;;;;;;;5.70;3.15;;;;;;;;;;4766463;30;20713;-80
2024/01/30 09:15:12;;;;;;;6.30;3.83;;;;;;;;;;4769973;30;20039;-80
2024/01/30 09:17:39;;;;;;;9.35;4.38;;;;;;;;;;4756548;30;20024;-81
2024/01/30 09:20:05;;;;;;;10.90;4.35;;;;;;;;;;4752075;30;20090;-81
2024/01/30 09:22:31;;;;;;;3.78;2.15;;;;;;;;;;4755310;30;20507;-81
2024/01/30 09:24:57;;;;;;;8.77;4.70;;;;;;;;;;4752262;30;20067;-80
2024/01/30 09:27:24;;;;;;;8.43;4.00;;;;;;;;;;4765274;30;20554;-81
2024/01/30 09:29:50;;;;;;;10.40;3.05;;;;;;;;;;4769913;30;20411;-81
2024/01/30 09:32:17;;;;;;;8.45;3.42;;;;;;;;;;4759815;30;20039;-81
2024/01/30 09:34:43;;;;;;;9.63;4.35;;;;;;;;;;4752384;30;20067;-81
2024/01/30 09:37:09;;;;;;;4.18;2.40;;;;;;;;;;4753144;30;20033;-80
2024/01/30 09:39:35;;;;;;;5.72;3.50;;;;;;;;;;4753194;30;20050;-80
2024/01/30 09:42:20;;;;;;;6.47;2.95;;;;;;;;;;4764654;30;20035;-80
2024/01/30 09:44:47;;;;;;;3.55;2.35;;;;;;;;;;4752471;30;20059;-81
2024/01/30 09:47:13;;;;;;;5.95;2.60;;;;;;;;;;4759468;30;20055;-80
2024/01/30 09:49:39;;;;;;;6.38;3.10;;;;;;;;;;4755664;30;20050;-81
2024/01/30 09:52:06;;;;;;;6.57;3.03;;;;;;;;;;4763116;30;20503;-81
2024/01/30 09:54:32;;;;;;;3.70;2.47;;;;;;;;;;4769292;30;20040;-80
2024/01/30 09:57:01;;;;;;;4.95;1.83;;;;;;;;;;4763020;30;20051;-81
2024/01/30 09:59:27;;;;;;;5.63;3.65;;;;;;;;;;4771100;30;20092;-81
2024/01/30 10:01:53;;;;;;;4.18;2.83;;;;;;;;;;4762516;30;20098;-80
2024/01/30 10:04:19;;;;;;;4.85;2.90;;;;;;;;;;4772556;30;20040;-80
2024/01/30 10:06:45;;;;;;;5.30;2.38;;;;;;;;;;4766019;30;20122;-81
2024/01/30 10:09:11;;;;;;;9.20;3.05;;;;;;;;;;4772736;30;20554;-81
2024/01/30 10:11:37;;;;;;;8.00;3.75;;;;;;;;;;4772403;30;20032;-81
2024/01/30 10:14:03;;;;;;;9.60;3.90;;;;;;;;;;4756991;30;20044;-81
2024/01/30 10:16:29;;;;;;;3.50;2.00;;;;;;;;;;4771711;30;20438;-81
2024/01/30 10:18:55;;;;;;;5.13;3.40;;;;;;;;;;4766580;30;20163;-81
2024/01/30 10:21:21;;;;;;;4.57;3.10;;;;;;;;;;4755549;30;20032;-81
2024/01/30 10:23:47;;;;;;;4.35;2.40;;;;;;;;;;4770278;30;20047;-80
2024/01/30 10:26:14;;;;;;;6.70;3.30;;;;;;;;;;4772339;30;20032;-81
2024/01/30 10:28:40;;;;;;;6.43;2.10;;;;;;;;;;4771606;30;20050;-81
2024/01/30 10:31:06;;;;;;;6.80;3.25;;;;;;;;;;4772044;30;20398;-81
2024/01/30 10:33:32;;;;;;;14.73;3.30;;;;;;;;;;4767635;30;20058;-81
2024/01/30 10:36:07;;;;;;;7.40;3.47;;;;;;;;;;4771825;30;20031;-81
2024/01/30 10:38:33;;;;;;;4.95;3.08;;;;;;;;;;4763130;30;20494;-81
2024/01/30 10:41:03;;;;;;;4.55;3.15;;;;;;;;;;4771842;30;20041;-81
2024/01/30 10:43:35;;;;;;;9.48;3.40;;;;;;;;;;4770684;30;20040;-81
2024/01/30 10:46:12;;;;;;;3.58;2.20;;;;;;;;;;4761746;30;20040;-81
2024/01/30 10:48:42;;;;;;;6.32;2.45;;;;;;;;;;4761228;30;20055;-81
2024/01/30 10:51:09;;;;;;;4.60;2.55;;;;;;;;;;4771258;30;20027;-81
2024/01/30 10:53:35;;;;;;;7.47;2.28;;;;;;;;;;4769995;30;20031;-81
2024/01/30 10:56:01;;;;;;;7.00;2.70;;;;;;;;;;4769732;30;20026;-81
2024/01/30 10:58:27;;;;;;;7.63;3.08;;;;;;;;;;4762167;30;20032;-81
2024/01/30 11:00:54;;;;;;;5.93;2.58;;;;;;;;;;4764993;30;20032;-81
2024/01/30 11:03:21;;;;;;;4.13;2.28;;;;;;;;;;4771134;30;20051;-81
2024/01/30 11:05:53;;;;;;;7.80;2.95;;;;;;;;;;4769979;30;20609;-81
2024/01/30 11:08:27;;;;;;;3.25;1.55;;;;;;;;;;4765945;30;20047;-81
2024/01/30 11:11:00;;;;;;;3.55;2.42;;;;;;;;;;4770759;30;20024;-81
2024/01/30 11:13:25;;;;;;;;;;;;;;;;;;4766279;30;20123;-81
2024/01/30 11:15:51;;;;;;;6.22;3.38;;;;;;;;;;4761858;30;20009;-81
2024/01/30 11:18:25;;;;;;;7.18;2.45;;;;;;;;;;4761131;30;20032;-81
2024/01/30 11:20:51;;;;;;;2.42;1.92;;;;;;;;;;4771005;30;20536;-80
2024/01/30 11:23:17;;;;;;;8.90;2.92;;;;;;;;;;4749000;30;20392;-81
2024/01/30 11:25:45;;;;;;;11.50;2.60;;;;;;;;;;4754653;30;20561;-81
2024/01/30 11:28:16;;;;;;;4.90;1.90;;;;;;;;;;4767641;30;20063;-81
2024/01/30 11:30:42;;;;;;;5.03;1.83;;;;;;;;;;4762548;30;20052;-81
2024/01/30 11:33:12;;;;;;;1.40;0.77;;;;;;;;;;4767689;30;20032;-81
2024/01/30 11:35:41;;;;;;;6.15;1.77;;;;;;;;;;4771017;30;20047;-81
2024/01/30 11:38:07;;;;;;;1.45;0.65;;;;;;;;;;4758179;30;20032;-81
2024/01/30 11:40:34;;;;;;;3.95;1.27;;;;;;;;;;4744835;30;20101;-81
2024/01/30 11:43:01;;;;;;;2.70;1.23;;;;;;;;;;4760757;30;20032;-81
2024/01/30 11:45:28;;;;;;;1.70;1.02;;;;;;;;;;4769054;30;20114;-81
2024/01/30 11:47:54;;;;;;;0.93;0.35;;;;;;;;;;4760411;30;20046;-81
2024/01/30 11:50:20;;;;;;;0.47;0.10;;;;;;;;;;4762358;30;20108;-81
2024/01/30 11:52:47;;;;;;;5.85;1.00;;;;;;;;;;4766641;30;20418;-81
2024/01/30 11:55:13;;;;;;;2.35;0.63;;;;;;;;;;4753397;30;20131;-81
2024/01/30 11:57:39;;;;;;;0.90;0.60;;;;;;;;;;4757517;30;20028;-81
2024/01/30 12:00:10;;;;;;;1.90;0.93;;;;;;;;;;4768754;30;20047;-81
2024/01/30 12:02:39;;;;;;;1.45;0.80;;;;;;;;;;4762200;30;20364;-81
2024/01/30 12:05:09;;;;;;;2.05;0.93;;;;;;;;;;4768635;30;20035;-81
2024/01/30 12:07:35;;;;;;;0.10;0.10;;;;;;;;;;4770162;30;20820;-81
2024/01/30 12:10:01;;;;;;;1.05;0.70;;;;;;;;;;4770637;30;20400;-81
2024/01/30 12:12:28;;;;;;;0.65;0.47;;;;;;;;;;4769151;30;20032;-81
2024/01/30 12:14:55;;;;;;;2.63;0.77;;;;;;;;;;4752768;30;20062;-82
2024/01/30 12:17:32;;;;;;;1.25;0.70;;;;;;;;;;4770361;30;20036;-81
2024/01/30 12:20:08;;;;;;;2.15;1.13;;;;;;;;;;4753881;30;20546;-81
2024/01/30 12:22:44;;;;;;;4.15;2.10;;;;;;;;;;4749685;30;20039;-81
2024/01/30 12:25:16;;;;;;;4.88;1.15;;;;;;;;;;4768447;30;20458;-81
2024/01/30 12:27:45;;;;;;;3.38;2.10;;;;;;;;;;4767106;30;20039;-81
2024/01/30 12:30:13;;;;;;;0.93;0.77;;;;;;;;;;4763158;30;20056;-81
2024/01/30 12:32:45;;;;;;;2.10;1.40;;;;;;;;;;4754945;30;20110;-81
2024/01/30 12:35:12;;;;;;;2.97;1.05;;;;;;;;;;4770747;30;20035;-81
2024/01/30 12:37:38;;;;;;;4.45;1.17;;;;;;;;;;4752924;30;20035;-81
2024/01/30 12:40:06;;;;;;;1.35;0.98;;;;;;;;;;4769637;30;20055;-82
2024/01/30 12:42:32;;;;;;;1.85;1.05;;;;;;;;;;4770711;30;20043;-82
2024/01/30 12:44:58;;;;;;;2.13;1.27;;;;;;;;;;4772563;30;20072;-80
2024/01/30 12:47:24;;;;;;;2.78;0.68;;;;;;;;;;4752765;30;20090;-81
2024/01/30 12:49:54;;;;;;;3.72;1.70;;;;;;;;;;4763574;30;20043;-82
2024/01/30 12:52:21;;;;;;;6.43;0.90;;;;;;;;;;4770115;30;20061;-81
2024/01/30 12:54:47;;;;;;;1.95;1.15;;;;;;;;;;4767885;30;20498;-81
2024/01/30 12:57:13;;;;;;;1.95;1.15;;;;;;;;;;4768847;30;20066;-81
2024/01/30 12:59:39;;;;;;;2.33;0.80;;;;;;;;;;4769951;30;20071;-81
2024/01/30 13:02:05;;;;;;;2.65;1.23;;;;;;;;;;4744362;30;20075;-81
2024/01/30 13:04:31;;;;;;;1.70;1.02;;;;;;;;;;4756921;30;20169;-81
2024/01/30 13:06:57;;;;;;;2.42;1.27;;;;;;;;;;4768869;30;20043;-82
2024/01/30 13:09:24;;;;;;;2.50;1.42;;;;;;;;;;4760558;30;20130;-81
2024/01/30 13:11:51;;;;;;;3.35;1.10;;;;;;;;;;4769874;30;20059;-81
2024/01/30 13:14:17;;;;;;;3.10;1.23;;;;;;;;;;4754984;30;20032;-81
2024/01/30 13:16:44;;;;;;;2.92;1.30;;;;;;;;;;4769801;30;20467;-81
2024/01/30 13:19:09;;;;;;;2.20;1.33;;;;;;;;;;4769964;30;20344;-81
2024/01/30 13:21:35;;;;;;;4.25;2.20;;;;;;;;;;4759838;30;20051;-81
2024/01/30 13:24:01;;;;;;;1.45;1.00;;;;;;;;;;4752283;30;20032;-81
2024/01/30 13:26:28;;;;;;;5.40;2.42;;;;;;;;;;4766018;30;20028;-82
2024/01/30 13:28:59;;;;;;;2.80;1.48;;;;;;;;;;4771575;30;20803;-81
2024/01/30 13:31:27;;;;;;;2.22;1.05;;;;;;;;;;4754387;30;20043;-82
2024/01/30 13:33:53;;;;;;;12.60;2.00;;;;;;;;;;4749029;30;20068;-81
2024/01/30 13:36:19;;;;;;;4.10;1.35;;;;;;;;;;4755531;30;20036;-81
2024/01/30 13:38:45;;;;;;;3.42;1.75;;;;;;;;;;4767447;30;20091;-81
2024/01/30 13:41:11;;;;;;;4.90;1.33;;;;;;;;;;4770907;30;20048;-81
2024/01/30 13:43:37;;;;;;;3.72;1.60;;;;;;;;;;4773282;30;20540;-81
2024/01/30 13:46:03;;;;;;;1.70;1.05;;;;;;;;;;4772915;30;20043;-81
2024/01/30 13:48:29;;;;;;;4.95;1.35;;;;;;;;;;4772884;30;20067;-81
2024/01/30 13:50:55;;;;;;;;;;;;;;;;;;4770859;30;20044;-81
2024/01/30 13:53:22;;;;;;;2.05;1.20;;;;;;;;;;4754814;30;19910;-81
2024/01/30 13:55:48;;;;;;;3.80;1.75;;;;;;;;;;4758149;30;20069;-81
2024/01/30 13:58:14;;;;;;;6.82;1.52;;;;;;;;;;4763232;30;20032;-81
2024/01/30 14:00:40;;;;;;;3.90;1.95;;;;;;;;;;4771219;30;20055;-81
2024/01/30 14:03:06;;;;;;;2.70;1.23;;;;;;;;;;4761527;30;20036;-81
2024/01/30 14:05:32;;;;;;;3.22;1.88;;;;;;;;;;4768939;30;20044;-81
2024/01/30 14:08:00;;;;;;;4.43;1.02;;;;;;;;;;4755296;30;20047;-82
2024/01/30 14:10:26;;;;;;;2.95;0.70;;;;;;;;;;4765727;30;20032;-81
2024/01/30 14:12:52;;;;;;;3.70;1.48;;;;;;;;;;4756136;30;20115;-81
2024/01/30 14:15:18;;;;;;;5.88;1.30;;;;;;;;;;4756136;30;20173;-81
2024/01/30 14:17:45;;;;;;;1.73;0.95;;;;;;;;;;4765901;30;20052;-81
2024/01/30 14:20:11;;;;;;;17.48;2.30;;;;;;;;;;4759471;30;20044;-81
2024/01/30 14:22:37;;;;;;;10.73;4.00;;;;;;;;;;4764487;30;20040;-81
2024/01/30 14:25:04;;;;;;;3.33;1.15;;;;;;;;;;4742094;30;20032;-81
2024/01/30 14:27:31;;;;;;;2.55;0.93;;;;;;;;;;4755512;30;20036;-81
2024/01/30 14:29:57;;;;;;;2.80;1.40;;;;;;;;;;4771594;30;20064;-81
2024/01/30 14:32:24;;;;;;;4.18;1.33;;;;;;;;;;4756227;30;20028;-82
2024/01/30 14:34:50;;;;;;;2.17;1.25;;;;;;;;;;4758851;30;20082;-81
2024/01/30 14:37:16;;;;;;;5.93;1.45;;;;;;;;;;4772652;30;20400;-82